createdAt,value
2023-04-18T00:01:05.901Z,99337.30
2023-04-18T00:03:34.354Z,99335.59
2023-04-18T00:06:01.663Z,99330.31
2023-04-18T00:08:28.398Z,99328.08
2023-04-18T00:10:54.997Z,99327.70
2023-04-18T00:13:22.287Z,99324.88
2023-04-18T00:15:48.861Z,99322.59
2023-04-18T00:18:16.845Z,99323.01
2023-04-18T00:20:45.585Z,99323.39
2023-04-18T00:23:13.559Z,99322.34
2023-04-18T00:25:40.252Z,99319.02
2023-04-18T00:28:06.852Z,99321.04
2023-04-18T00:30:33.437Z,99324.02
2023-04-18T00:33:00.212Z,99323.38
2023-04-18T00:35:26.798Z,99321.02
2023-04-18T00:37:53.363Z,99322.30
2023-04-18T00:40:19.895Z,99321.69
2023-04-18T00:42:46.638Z,99324.57
2023-04-18T00:45:14.074Z,99321.64
2023-04-18T00:47:40.927Z,99319.03
2023-04-18T00:50:09.286Z,99319.27
2023-04-18T00:52:36.256Z,99317.55
2023-04-18T00:55:06.378Z,99317.66
2023-04-18T00:57:33.626Z,99315.93
2023-04-18T01:00:01.625Z,99313.21
2023-04-18T01:02:29.874Z,99312.95
2023-04-18T01:04:58.110Z,99309.23
2023-04-18T01:07:26.016Z,99307.25
2023-04-18T01:09:55.194Z,99308.00
2023-04-18T01:12:22.870Z,99309.44
2023-04-18T01:14:49.355Z,99309.70
2023-04-18T01:17:16.856Z,99311.11
2023-04-18T01:19:46.202Z,99306.74
2023-04-18T01:22:13.561Z,99308.98
2023-04-18T01:24:41.596Z,99311.59
2023-04-18T01:27:15.402Z,99308.36
2023-04-18T01:29:41.899Z,99307.98
2023-04-18T01:32:09.577Z,99308.08
2023-04-18T01:34:37.032Z,99309.13
2023-04-18T01:37:05.854Z,99307.30
2023-04-18T01:39:32.976Z,99303.68
2023-04-18T01:42:01.283Z,99306.27
2023-04-18T01:44:27.839Z,99304.09
2023-04-18T01:46:54.410Z,99304.02
2023-04-18T01:49:20.988Z,99304.98
2023-04-18T01:51:48.949Z,99303.98
2023-04-18T01:54:15.725Z,99298.63
2023-04-18T01:56:42.553Z,99305.69
2023-04-18T01:59:09.107Z,99304.92
2023-04-18T02:01:35.619Z,99303.90
2023-04-18T02:04:02.296Z,99300.21
2023-04-18T02:06:29.241Z,99304.45
2023-04-18T02:08:55.792Z,99301.12
2023-04-18T02:11:24.866Z,99299.31
2023-04-18T02:13:51.556Z,99299.79
2023-04-18T02:16:18.861Z,99296.52
2023-04-18T02:18:45.547Z,99297.48
2023-04-18T02:21:13.609Z,99294.33
2023-04-18T02:23:40.090Z,99294.77
2023-04-18T02:26:06.685Z,99296.36
2023-04-18T02:28:33.537Z,99296.02
2023-04-18T02:31:03.024Z,99296.11
2023-04-18T02:33:30.187Z,99298.06
2023-04-18T02:35:56.734Z,99299.57
2023-04-18T02:38:23.415Z,99298.55
2023-04-18T02:40:51.920Z,99297.83
2023-04-18T02:43:20.290Z,99296.40
2023-04-18T02:45:46.819Z,99295.33
2023-04-18T02:48:14.894Z,99296.22
2023-04-18T02:50:41.592Z,99295.96
2023-04-18T02:53:08.139Z,99295.52
2023-04-18T02:55:46.805Z,99293.21
2023-04-18T02:58:13.357Z,99292.64
2023-04-18T03:00:58.190Z,99292.85
2023-04-18T03:03:43.602Z,99292.45
2023-04-18T03:06:59.597Z,99289.38
2023-04-18T03:09:28.793Z,99288.52
2023-04-18T03:12:02.222Z,99290.96
2023-04-18T03:14:32.184Z,99289.50
2023-04-18T03:17:02.901Z,99288.55
2023-04-18T03:19:36.485Z,99291.85
2023-04-18T03:22:07.599Z,99293.58
2023-04-18T03:24:37.072Z,99289.75
2023-04-18T03:27:09.770Z,99291.57
2023-04-18T03:29:38.598Z,99296.73
2023-04-18T03:32:07.474Z,99292.65
2023-04-18T03:34:36.190Z,99293.67
2023-04-18T03:37:05.356Z,99298.21
2023-04-18T03:39:36.522Z,99300.39
2023-04-18T03:42:04.554Z,99300.46
2023-04-18T03:44:32.903Z,99298.47
2023-04-18T03:47:00.805Z,99295.20
2023-04-18T03:49:29.529Z,99295.58
2023-04-18T03:51:57.511Z,99299.60
2023-04-18T03:54:25.712Z,99302.19
2023-04-18T03:56:53.714Z,99305.95
2023-04-18T03:59:21.888Z,99303.21
2023-04-18T04:01:51.000Z,99306.73
2023-04-18T04:04:19.527Z,99304.29
2023-04-18T04:06:47.741Z,99306.74
2023-04-18T04:09:18.915Z,99304.64
2023-04-18T04:11:48.285Z,99304.43
2023-04-18T04:14:16.343Z,99306.74
2023-04-18T04:16:46.611Z,99307.61
2023-04-18T04:19:17.781Z,99308.05
2023-04-18T04:21:54.874Z,99308.55
2023-04-18T04:24:23.068Z,99307.17
2023-04-18T04:26:52.021Z,99308.10
2023-04-18T04:29:23.917Z,99315.20
2023-04-18T04:31:52.763Z,99312.94
2023-04-18T04:34:28.048Z,99309.23
2023-04-18T04:36:56.122Z,99304.20
2023-04-18T04:39:25.556Z,99306.41
2023-04-18T04:42:12.253Z,99304.06
2023-04-18T04:44:50.420Z,99303.07
2023-04-18T04:47:19.287Z,99305.46
2023-04-18T04:49:47.184Z,99308.08
2023-04-18T04:52:15.377Z,99311.52
2023-04-18T04:54:45.010Z,99310.38
2023-04-18T04:57:14.039Z,99312.31
2023-04-18T04:59:42.046Z,99319.14
2023-04-18T05:02:09.973Z,99319.64
2023-04-18T05:04:38.332Z,99322.50
2023-04-18T05:07:06.489Z,99322.13
2023-04-18T05:09:34.509Z,99321.13
2023-04-18T05:12:03.100Z,99325.81
2023-04-18T05:14:31.458Z,99322.95
2023-04-18T05:16:59.455Z,99322.64
2023-04-18T05:19:27.572Z,99321.11
2023-04-18T05:21:56.061Z,99319.16
2023-04-18T05:24:23.969Z,99316.20
2023-04-18T05:26:53.070Z,99318.86
2023-04-18T05:29:22.092Z,99317.05
2023-04-18T05:31:50.005Z,99321.34
2023-04-18T05:34:17.925Z,99323.98
2023-04-18T05:36:47.766Z,99321.80
2023-04-18T05:39:17.199Z,99326.21
2023-04-18T05:41:45.178Z,99331.34
2023-04-18T05:44:13.125Z,99320.89
2023-04-18T05:46:41.138Z,99320.52
2023-04-18T05:49:09.055Z,99320.62
2023-04-18T05:51:37.161Z,99320.08
2023-04-18T05:54:05.099Z,99316.96
2023-04-18T05:56:34.419Z,99322.77
2023-04-18T05:59:02.391Z,99324.73
2023-04-18T06:01:32.628Z,99319.80
2023-04-18T06:04:01.198Z,99319.50
2023-04-18T06:06:29.614Z,99322.15
2023-04-18T06:08:57.485Z,99323.29
2023-04-18T06:11:25.486Z,99317.48
2023-04-18T06:13:56.256Z,99316.87
2023-04-18T06:16:24.174Z,99320.19
2023-04-18T06:18:52.154Z,99318.48
2023-04-18T06:21:21.296Z,99318.45
2023-04-18T06:23:49.244Z,99323.11
2023-04-18T06:26:17.636Z,99320.50
2023-04-18T06:28:45.562Z,99323.67
2023-04-18T06:31:13.482Z,99320.08
2023-04-18T06:33:41.755Z,99318.83
2023-04-18T06:36:10.774Z,99322.25
2023-04-18T06:38:38.986Z,99319.50
2023-04-18T06:41:07.905Z,99323.44
2023-04-18T06:43:36.279Z,99325.99
2023-04-18T06:46:05.154Z,99313.87
2023-04-18T06:48:33.955Z,99316.08
2023-04-18T06:51:02.951Z,99314.20
2023-04-18T06:53:30.944Z,99316.55
2023-04-18T06:55:58.907Z,99316.24
2023-04-18T06:58:27.984Z,99321.34
2023-04-18T07:00:55.966Z,99318.23
2023-04-18T07:03:24.488Z,99320.21
2023-04-18T07:05:52.720Z,99317.26
2023-04-18T07:08:20.632Z,99320.47
2023-04-18T07:10:48.763Z,99320.06
2023-04-18T07:13:17.251Z,99320.17
2023-04-18T07:15:45.343Z,99316.52
2023-04-18T07:18:18.014Z,99317.05
2023-04-18T07:20:51.646Z,99310.10
2023-04-18T07:23:20.189Z,99320.91
2023-04-18T07:25:48.158Z,99317.09
2023-04-18T07:28:17.615Z,99319.26
2023-04-18T07:30:46.561Z,99322.42
2023-04-18T07:33:15.352Z,99317.48
2023-04-18T07:35:46.089Z,99315.73
2023-04-18T07:38:14.036Z,99320.26
2023-04-18T07:40:42.115Z,99322.73
2023-04-18T07:43:10.058Z,99321.28
2023-04-18T07:45:38.663Z,99312.89
2023-04-18T07:48:07.806Z,99317.66
2023-04-18T07:50:37.247Z,99325.27
2023-04-18T07:53:05.188Z,99322.81
2023-04-18T07:55:33.681Z,99319.05
2023-04-18T07:58:01.847Z,99319.80
2023-04-18T08:00:32.762Z,99321.56
2023-04-18T08:03:01.201Z,99312.77
2023-04-18T08:05:29.555Z,99318.95
2023-04-18T08:07:57.414Z,99310.57
2023-04-18T08:10:26.207Z,99316.65
2023-04-18T08:12:54.063Z,99305.75
2023-04-18T08:15:21.960Z,99307.72
2023-04-18T08:17:51.728Z,99307.62
2023-04-18T08:20:19.894Z,99311.19
2023-04-18T08:23:05.098Z,99303.66
2023-04-18T08:25:36.713Z,99304.27
2023-04-18T08:28:06.663Z,99304.79
2023-04-18T08:30:35.465Z,99302.72
2023-04-18T08:33:03.488Z,99300.92
2023-04-18T08:35:31.514Z,99301.92
2023-04-18T08:38:03.078Z,99302.07
2023-04-18T08:40:31.078Z,99306.30
2023-04-18T08:42:59.337Z,99298.02
2023-04-18T08:45:28.891Z,99307.81
2023-04-18T08:47:58.926Z,99302.36
2023-04-18T08:50:27.796Z,99303.92
2023-04-18T08:52:56.211Z,99305.09
2023-04-18T08:55:24.224Z,99302.40
2023-04-18T08:57:54.607Z,99300.86
2023-04-18T09:00:23.762Z,99298.22
2023-04-18T09:02:56.853Z,99298.49
2023-04-18T09:05:26.826Z,99294.84
2023-04-18T09:07:55.272Z,99296.03
2023-04-18T09:10:29.957Z,99298.09
2023-04-18T09:12:58.526Z,99293.71
2023-04-18T09:15:27.329Z,99291.53
2023-04-18T09:17:58.389Z,99289.00
2023-04-18T09:20:41.450Z,99279.86
2023-04-18T09:23:11.197Z,99279.96
2023-04-18T09:25:45.245Z,99278.29
2023-04-18T09:28:28.826Z,99270.81
2023-04-18T09:31:17.908Z,99279.79
2023-04-18T09:33:56.980Z,99280.74
2023-04-18T09:36:29.249Z,99275.25
2023-04-18T09:38:57.514Z,99279.35
2023-04-18T09:41:27.586Z,99277.56
2023-04-18T09:44:13.515Z,99273.29
2023-04-18T09:46:46.653Z,99274.38
2023-04-18T09:49:17.264Z,99268.57
2023-04-18T09:51:46.329Z,99276.07
2023-04-18T09:54:18.227Z,99271.83
2023-04-18T09:56:47.007Z,99267.42
2023-04-18T09:59:18.681Z,99263.15
2023-04-18T10:01:48.634Z,99262.96
2023-04-18T10:04:17.044Z,99260.86
2023-04-18T10:06:45.826Z,99259.38
2023-04-18T10:09:16.154Z,99244.03
2023-04-18T10:11:44.525Z,99249.45
2023-04-18T10:14:13.880Z,99256.02
2023-04-18T10:16:42.349Z,99253.08
2023-04-18T10:19:26.957Z,99235.02
2023-04-18T10:21:59.141Z,99243.67
2023-04-18T10:24:49.929Z,99247.69
2023-04-18T10:27:19.611Z,99247.51
2023-04-18T10:29:51.521Z,99243.64
2023-04-18T10:32:23.593Z,99242.39
2023-04-18T10:34:53.900Z,99237.46
2023-04-18T10:37:22.097Z,99233.87
2023-04-18T10:40:11.239Z,99236.81
2023-04-18T10:42:45.844Z,99245.61
2023-04-18T10:45:21.052Z,99239.33
2023-04-18T10:47:50.370Z,99244.27
2023-04-18T10:50:18.305Z,99242.63
2023-04-18T10:52:47.312Z,99243.70
2023-04-18T10:55:17.764Z,99243.84
2023-04-18T10:57:47.277Z,99242.80
2023-04-18T11:00:17.609Z,99243.84
2023-04-18T11:02:50.299Z,99241.04
2023-04-18T11:05:19.805Z,99249.61
2023-04-18T11:07:50.421Z,99245.81
2023-04-18T11:10:20.533Z,99242.43
2023-04-18T11:12:48.601Z,99242.00
2023-04-18T11:15:26.296Z,99249.10
2023-04-18T11:17:55.892Z,99240.89
2023-04-18T11:20:23.924Z,99239.77
2023-04-18T11:22:53.752Z,99247.84
2023-04-18T11:25:30.554Z,99249.35
2023-04-18T11:27:59.934Z,99251.74
2023-04-18T11:30:29.270Z,99252.48
2023-04-18T11:32:57.235Z,99248.02
2023-04-18T11:35:25.551Z,99250.02
2023-04-18T11:37:54.307Z,99249.09
2023-04-18T11:40:22.229Z,99251.48
2023-04-18T11:42:50.436Z,99245.92
2023-04-18T11:45:18.367Z,99249.41
2023-04-18T11:47:46.372Z,99252.55
2023-04-18T11:50:14.494Z,99250.66
2023-04-18T11:52:42.921Z,99254.55
2023-04-18T11:55:21.375Z,99254.54
2023-04-18T11:57:53.971Z,99251.60
2023-04-18T12:00:31.243Z,99253.31
2023-04-18T12:02:59.934Z,99250.23
2023-04-18T12:05:35.878Z,99246.39
2023-04-18T12:08:11.932Z,99247.17
2023-04-18T12:10:52.919Z,99239.80
2023-04-18T12:13:31.889Z,99241.23
2023-04-18T12:16:01.740Z,99236.16
2023-04-18T12:18:31.574Z,99227.96
2023-04-18T12:21:02.004Z,99218.73
2023-04-18T12:23:42.519Z,99223.28
2023-04-18T12:26:15.152Z,99223.09
2023-04-18T12:28:44.859Z,99227.06
2023-04-18T12:31:13.018Z,99228.39
2023-04-18T12:33:41.119Z,99223.92
2023-04-18T12:36:10.564Z,99219.99
2023-04-18T12:38:38.522Z,99222.12
2023-04-18T12:41:06.730Z,99220.52
2023-04-18T12:43:36.312Z,99219.25
2023-04-18T12:46:04.187Z,99222.37
2023-04-18T12:48:32.721Z,99223.04
2023-04-18T12:51:00.741Z,99219.67
2023-04-18T12:53:28.805Z,99216.13
2023-04-18T12:55:56.671Z,99219.08
2023-04-18T12:58:24.546Z,99215.48
2023-04-18T13:00:52.630Z,99215.38
2023-04-18T13:03:21.308Z,99217.02
2023-04-18T13:05:49.384Z,99217.85
2023-04-18T13:08:18.230Z,99216.13
2023-04-18T13:10:47.700Z,99224.30
2023-04-18T13:13:16.202Z,99222.91
2023-04-18T13:15:44.349Z,99224.57
2023-04-18T13:18:12.283Z,99220.84
2023-04-18T13:20:40.700Z,99226.42
2023-04-18T13:23:08.937Z,99226.64
2023-04-18T13:25:38.774Z,99222.16
2023-04-18T13:28:06.895Z,99221.44
2023-04-18T13:30:35.990Z,99223.76
2023-04-18T13:33:04.511Z,99220.77
2023-04-18T13:35:32.516Z,99218.20
2023-04-18T13:38:00.732Z,99214.65
2023-04-18T13:40:28.959Z,99214.20
2023-04-18T13:42:57.868Z,99215.65
2023-04-18T13:45:25.809Z,99212.34
2023-04-18T13:47:54.144Z,99213.66
2023-04-18T13:50:24.455Z,99208.55
2023-04-18T13:52:54.648Z,99207.42
2023-04-18T13:55:22.924Z,99206.23
2023-04-18T13:57:51.316Z,99205.08
2023-04-18T14:00:19.720Z,99207.58
2023-04-18T14:02:48.075Z,99209.38
2023-04-18T14:05:16.418Z,99211.79
2023-04-18T14:07:44.615Z,99203.73
2023-04-18T14:10:12.786Z,99189.33
2023-04-18T14:12:41.008Z,99184.59
2023-04-18T14:15:10.927Z,99188.43
2023-04-18T14:17:39.116Z,99191.71
2023-04-18T14:20:08.602Z,99186.90
2023-04-18T14:22:37.009Z,99180.75
2023-04-18T14:25:05.420Z,99177.84
2023-04-18T14:27:33.675Z,99172.32
2023-04-18T14:30:01.603Z,99178.73
2023-04-18T14:32:30.467Z,99182.53
2023-04-18T14:34:59.355Z,99172.50
2023-04-18T14:37:27.863Z,99173.77
2023-04-18T14:39:55.959Z,99177.46
2023-04-18T14:42:23.927Z,99175.17
2023-04-18T14:44:51.867Z,99171.81
2023-04-18T14:47:20.061Z,99172.83
2023-04-18T14:49:48.232Z,99169.85
2023-04-18T14:52:16.213Z,99165.41
2023-04-18T14:54:44.268Z,99169.71
2023-04-18T14:57:13.019Z,99174.90
2023-04-18T14:59:41.022Z,99173.66
2023-04-18T15:02:09.061Z,99171.86
2023-04-18T15:04:37.406Z,99167.27
2023-04-18T15:07:05.614Z,99160.79
2023-04-18T15:09:40.001Z,99163.23
2023-04-18T15:12:09.212Z,99161.30
2023-04-18T15:14:37.828Z,99164.20
2023-04-18T15:17:05.860Z,99161.26
2023-04-18T15:19:34.547Z,99154.58
2023-04-18T15:24:43.868Z,99155.11
2023-04-18T15:27:11.874Z,99156.02
2023-04-18T15:29:39.824Z,99153.79
2023-04-18T15:32:08.129Z,99144.88
2023-04-18T15:34:36.182Z,99148.75
2023-04-18T15:37:04.775Z,99146.75
2023-04-18T15:39:32.769Z,99144.21
2023-04-18T15:42:00.735Z,99137.95
2023-04-18T15:44:30.824Z,99142.52
2023-04-18T15:47:01.158Z,99133.59
2023-04-18T15:49:29.616Z,99134.39
2023-04-18T15:51:57.554Z,99129.14
2023-04-18T15:54:26.284Z,99130.32
2023-04-18T15:56:54.295Z,99128.25
2023-04-18T15:59:22.301Z,99129.44
2023-04-18T16:01:50.339Z,99133.07
2023-04-18T16:04:18.376Z,99134.89
2023-04-18T16:06:46.378Z,99131.75
2023-04-18T16:09:14.598Z,99132.88
2023-04-18T16:11:42.570Z,99137.20
2023-04-18T16:14:10.555Z,99133.46
2023-04-18T16:16:38.542Z,99135.05
2023-04-18T16:19:06.481Z,99132.45
2023-04-18T16:21:34.611Z,99127.96
2023-04-18T16:24:02.550Z,99129.17
2023-04-18T16:26:30.699Z,99127.13
2023-04-18T16:28:59.106Z,99126.29
2023-04-18T16:31:27.068Z,99123.71
2023-04-18T16:33:56.256Z,99120.56
2023-04-18T16:36:24.232Z,99124.80
2023-04-18T16:38:52.170Z,99118.81
2023-04-18T16:41:20.178Z,99120.55
2023-04-18T16:43:48.186Z,99119.40
2023-04-18T16:46:16.192Z,99114.42
2023-04-18T16:48:45.336Z,99117.14
2023-04-18T16:51:14.668Z,99116.83
2023-04-18T16:53:46.009Z,99115.27
2023-04-18T16:56:15.755Z,99117.81
2023-04-18T16:58:43.674Z,99118.52
2023-04-18T17:01:11.644Z,99118.80
2023-04-18T17:03:39.901Z,99113.90
2023-04-18T17:06:08.020Z,99117.30
2023-04-18T17:08:37.304Z,99118.69
2023-04-18T17:11:05.302Z,99120.02
2023-04-18T17:13:33.300Z,99110.39
2023-04-18T17:16:01.336Z,99111.35
2023-04-18T17:18:29.641Z,99106.91
2023-04-18T17:20:57.771Z,99109.35
2023-04-18T17:23:25.952Z,99106.92
2023-04-18T17:25:56.029Z,99107.59
2023-04-18T17:28:23.918Z,99109.89
2023-04-18T17:30:52.151Z,99108.27
2023-04-18T17:33:21.214Z,99107.15
2023-04-18T17:35:50.426Z,99108.29
2023-04-18T17:38:18.358Z,99105.31
2023-04-18T17:40:46.368Z,99109.83
2023-04-18T17:43:14.443Z,99105.59
2023-04-18T17:45:42.634Z,99100.58
2023-04-18T17:48:10.705Z,99098.11
2023-04-18T17:50:38.809Z,99097.73
2023-04-18T17:53:06.684Z,99098.21
2023-04-18T17:55:35.697Z,99095.22
2023-04-18T17:58:05.192Z,99090.61
2023-04-18T18:00:33.379Z,99088.88
2023-04-18T18:03:02.491Z,99087.80
2023-04-18T18:05:32.371Z,99089.20
2023-04-18T18:08:01.076Z,99080.86
2023-04-18T18:10:31.219Z,99082.23
2023-04-18T18:12:59.152Z,99082.35
2023-04-18T18:15:27.061Z,99078.88
2023-04-18T18:17:56.397Z,99074.08
2023-04-18T18:20:24.539Z,99068.90
2023-04-18T18:22:52.740Z,99065.41
2023-04-18T18:25:20.926Z,99065.78
2023-04-18T18:27:49.980Z,99062.70
2023-04-18T18:30:19.002Z,99061.10
2023-04-18T18:32:47.032Z,99061.00
2023-04-18T18:35:16.216Z,99057.57
2023-04-18T18:37:44.431Z,99057.95
2023-04-18T18:40:12.600Z,99053.51
2023-04-18T18:42:42.632Z,99051.31
2023-04-18T18:45:10.633Z,99048.90
2023-04-18T18:47:40.006Z,99048.56
2023-04-18T18:50:08.672Z,99044.67
2023-04-18T18:52:37.066Z,99044.73
2023-04-18T18:55:07.406Z,99038.98
2023-04-18T18:57:35.594Z,99033.21
2023-04-18T19:00:10.995Z,99029.38
2023-04-18T19:02:39.764Z,99024.84
2023-04-18T19:05:08.177Z,99024.10
2023-04-18T19:07:41.775Z,99023.26
2023-04-18T19:10:10.382Z,99024.16
2023-04-18T19:12:38.389Z,99020.10
2023-04-18T19:15:07.117Z,99017.55
2023-04-18T19:17:35.901Z,99022.40
2023-04-18T19:20:04.252Z,99016.89
2023-04-18T19:22:32.577Z,99015.56
2023-04-18T19:25:00.987Z,99015.77
2023-04-18T19:27:29.078Z,99011.36
2023-04-18T19:29:57.159Z,99012.53
2023-04-18T19:32:26.905Z,99010.67
2023-04-18T19:34:54.798Z,99008.11
2023-04-18T19:37:23.120Z,99004.23
2023-04-18T19:39:51.071Z,99002.69
2023-04-18T19:42:18.989Z,98996.91
2023-04-18T19:44:46.992Z,98996.45
2023-04-18T19:47:15.453Z,98994.77
2023-04-18T19:49:44.424Z,98994.44
2023-04-18T19:52:14.792Z,98993.10
2023-04-18T19:54:42.674Z,98992.93
2023-04-18T19:57:12.583Z,98994.10
2023-04-18T19:59:40.704Z,98993.45
2023-04-18T20:02:09.130Z,98989.29
2023-04-18T20:04:37.641Z,98989.66
2023-04-18T20:07:05.728Z,98984.45
2023-04-18T20:09:33.616Z,98980.20
2023-04-18T20:12:02.918Z,98983.71
2023-04-18T20:14:31.948Z,98980.11
2023-04-18T20:16:59.827Z,98978.84
2023-04-18T20:19:29.836Z,98981.26
2023-04-18T20:21:58.026Z,98982.38
2023-04-18T20:24:28.175Z,98977.77
2023-04-18T20:26:59.024Z,98971.94
2023-04-18T20:29:27.911Z,98969.33
2023-04-18T20:31:56.113Z,98964.95
2023-04-18T20:34:24.630Z,98964.22
2023-04-18T20:36:52.632Z,98963.85
2023-04-18T20:39:20.831Z,98958.85
2023-04-18T20:41:52.496Z,98955.02
2023-04-18T20:44:21.807Z,98955.51
2023-04-18T20:46:49.804Z,98950.02
2023-04-18T20:49:17.835Z,98949.40
2023-04-18T20:51:46.137Z,98945.96
2023-04-18T20:54:14.427Z,98946.13
2023-04-18T20:56:42.633Z,98944.86
2023-04-18T20:59:10.554Z,98943.16
2023-04-18T21:01:38.642Z,98940.41
2023-04-18T21:04:06.704Z,98937.05
2023-04-18T21:06:35.107Z,98935.86
2023-04-18T21:09:03.026Z,98933.98
2023-04-18T21:11:31.421Z,98935.88
2023-04-18T21:13:59.777Z,98934.98
2023-04-18T21:16:27.710Z,98930.79
2023-04-18T21:18:55.788Z,98928.13
2023-04-18T21:21:24.379Z,98924.08
2023-04-18T21:23:52.373Z,98920.96
2023-04-18T21:26:20.679Z,98923.72
2023-04-18T21:28:59.193Z,98921.96
2023-04-18T21:31:29.049Z,98922.52
2023-04-18T21:33:58.128Z,98922.79
2023-04-18T21:36:27.073Z,98918.42
2023-04-18T21:38:55.529Z,98919.33
2023-04-18T21:41:23.619Z,98920.06
2023-04-18T21:43:51.687Z,98919.90
2023-04-18T21:46:19.863Z,98927.06
2023-04-18T21:48:48.285Z,98930.17
2023-04-18T21:51:16.920Z,98928.84
2023-04-18T21:53:45.935Z,98925.19
2023-04-18T21:56:14.294Z,98922.84
2023-04-18T21:58:42.393Z,98919.05
2023-04-18T22:01:10.522Z,98915.54
2023-04-18T22:03:38.704Z,98916.95
2023-04-18T22:06:06.803Z,98915.01
2023-04-18T22:08:34.781Z,98912.91
2023-04-18T22:11:02.736Z,98908.78
2023-04-18T22:13:33.204Z,98902.52
2023-04-18T22:16:03.531Z,98896.77
2023-04-18T22:18:34.547Z,98896.57
2023-04-18T22:21:03.409Z,98895.24
2023-04-18T22:23:31.672Z,98887.96
2023-04-18T22:25:59.581Z,98888.98
2023-04-18T22:28:30.382Z,98889.77
2023-04-18T22:30:58.370Z,98889.50
2023-04-18T22:33:26.731Z,98887.08
2023-04-18T22:35:55.818Z,98881.59
2023-04-18T22:38:25.081Z,98879.64
2023-04-18T22:40:53.086Z,98875.69
2023-04-18T22:43:24.053Z,98871.75
2023-04-18T22:45:52.407Z,98866.77
2023-04-18T22:48:20.609Z,98867.55
2023-04-18T22:50:50.050Z,98857.34
2023-04-18T22:53:18.400Z,98856.09
2023-04-18T22:55:47.357Z,98857.17
2023-04-18T22:58:15.252Z,98851.10
2023-04-18T23:00:43.131Z,98843.54
2023-04-18T23:03:11.428Z,98844.40
2023-04-18T23:05:40.271Z,98833.95
2023-04-18T23:08:08.485Z,98836.48
2023-04-18T23:10:36.588Z,98839.33
2023-04-18T23:13:04.596Z,98835.17
2023-04-18T23:15:32.672Z,98831.13
2023-04-18T23:18:00.762Z,98836.35
2023-04-18T23:20:29.467Z,98845.73
2023-04-18T23:22:57.352Z,98837.68
2023-04-18T23:25:25.430Z,98843.34
2023-04-18T23:27:53.298Z,98838.85
2023-04-18T23:30:21.164Z,98835.27
2023-04-18T23:32:49.184Z,98831.70
2023-04-18T23:35:17.326Z,98833.20
2023-04-18T23:37:45.703Z,98826.30
2023-04-18T23:40:13.660Z,98820.35
2023-04-18T23:42:42.222Z,98815.19
2023-04-18T23:45:10.817Z,98816.14
2023-04-18T23:47:39.758Z,98817.88
2023-04-18T23:50:09.733Z,98812.67
2023-04-18T23:52:38.811Z,98812.66
2023-04-18T23:55:06.968Z,98814.52
2023-04-18T23:57:35.071Z,98814.23
